Agency, Missouri
Current Conditions -  °F | °C
As of 12:53 PM on Thursday 27 Nov 2014 (Local Time) from KSTJ Reporting Station
Clear Clear  
Wind Chill: -5°   Ceiling: Unl
Heat Index: -2°   Visibility: 10mi
Dew Point: -9°   Wind: 5mph
Humidity: 58%   Direction: NA
Pressure: 30.49"   Gusts: NA
Location:  39.64°N, 94.74°W
Report Text: KSTJ 271853Z VRB04KT 10SM CLR M02/M09 A3049 RMK AO2 SLP333 T10221094
Loading
Personal Weather Stations






























Interactive Weather Map New forecast layout! Learn more

10-Day Weather Forecast

Advertisements
Track Severe Weather on mobile